createdAt,value
2022-12-08T00:03:19.227Z,100542.91
2022-12-08T00:08:20.889Z,100531.69
2022-12-08T00:13:22.474Z,100530.00
2022-12-08T00:18:23.991Z,100525.81
2022-12-08T00:23:26.322Z,100520.16
2022-12-08T00:28:27.886Z,100516.44
2022-12-08T00:33:29.390Z,100502.41
2022-12-08T00:38:31.008Z,100495.28
2022-12-08T00:43:32.531Z,100489.13
2022-12-08T00:48:34.130Z,100487.59
2022-12-08T00:53:35.654Z,100482.59
2022-12-08T00:58:37.186Z,100484.53
2022-12-08T01:03:38.846Z,100474.75
2022-12-08T01:08:41.439Z,100478.22
2022-12-08T01:13:43.322Z,100474.16
2022-12-08T01:18:44.917Z,100469.25
2022-12-08T01:23:46.637Z,100484.22
2022-12-08T01:28:49.260Z,100473.66
2022-12-08T01:33:51.689Z,100472.03
2022-12-08T01:38:54.414Z,100479.81
2022-12-08T01:43:55.852Z,100475.78
2022-12-08T01:49:03.411Z,100476.75
2022-12-08T01:54:06.808Z,100474.38
2022-12-08T01:59:09.786Z,100462.31
2022-12-08T02:04:11.732Z,100471.13
2022-12-08T02:09:14.661Z,100463.84
2022-12-08T02:14:16.215Z,100460.25
2022-12-08T02:19:56.828Z,100457.16
2022-12-08T02:25:01.369Z,100451.47
2022-12-08T02:30:15.030Z,100450.50
2022-12-08T02:35:29.997Z,100438.13
2022-12-08T02:41:10.445Z,100435.66
2022-12-08T02:46:19.702Z,100436.03
2022-12-08T02:51:21.230Z,100423.16
2022-12-08T02:56:34.870Z,100408.69
2022-12-08T03:02:00.757Z,100409.16
2022-12-08T03:07:09.250Z,100386.25
2022-12-08T03:12:39.090Z,100403.34
2022-12-08T03:17:45.551Z,100386.94
2022-12-08T03:22:50.472Z,100383.03
2022-12-08T03:27:53.185Z,100375.88
2022-12-08T03:33:17.943Z,100372.78
2022-12-08T03:38:19.585Z,100365.63
2022-12-08T03:43:21.073Z,100354.88
2022-12-08T03:48:22.607Z,100349.72
2022-12-08T03:53:24.186Z,100351.00
2022-12-08T03:58:25.677Z,100346.75
2022-12-08T04:03:27.278Z,100344.31
2022-12-08T04:08:28.890Z,100338.28
2022-12-08T04:13:30.450Z,100321.03
2022-12-08T04:18:33.093Z,100325.41
2022-12-08T04:23:34.633Z,100320.53
2022-12-08T04:28:36.902Z,100317.47
2022-12-08T04:33:38.431Z,100320.75
2022-12-08T04:38:39.968Z,100310.13
2022-12-08T04:43:41.475Z,100311.25
2022-12-08T04:48:43.030Z,100301.69
2022-12-08T04:53:46.919Z,100304.06
2022-12-08T04:58:48.720Z,100304.75
2022-12-08T05:03:50.202Z,100297.78
2022-12-08T05:08:51.734Z,100297.28
2022-12-08T05:13:53.264Z,100302.66
2022-12-08T05:18:54.766Z,100303.13
2022-12-08T05:23:56.289Z,100294.53
2022-12-08T05:28:58.048Z,100283.50
2022-12-08T05:34:03.209Z,100287.09
2022-12-08T05:39:05.230Z,100279.63
2022-12-08T05:44:07.882Z,100279.09
2022-12-08T05:49:18.788Z,100274.56
2022-12-08T05:54:20.339Z,100267.25
2022-12-08T05:59:21.853Z,100267.59
2022-12-08T06:04:23.423Z,100260.09
2022-12-08T06:09:25.069Z,100252.81
2022-12-08T06:14:26.597Z,100256.38
2022-12-08T06:19:28.139Z,100259.47
2022-12-08T06:24:29.674Z,100261.25
2022-12-08T06:29:31.281Z,100257.19
2022-12-08T06:34:32.795Z,100258.66
2022-12-08T06:39:34.450Z,100256.22
2022-12-08T06:44:35.999Z,100256.88
2022-12-08T06:49:37.606Z,100256.53
2022-12-08T06:54:39.531Z,100263.06
2022-12-08T06:59:41.142Z,100267.59
2022-12-08T07:04:43.030Z,100260.94
2022-12-08T07:09:44.513Z,100271.19
2022-12-08T07:14:46.161Z,100268.59
2022-12-08T07:19:47.678Z,100267.44
2022-12-08T07:24:49.260Z,100268.75
2022-12-08T07:29:50.866Z,100277.16
2022-12-08T07:34:52.479Z,100274.53
2022-12-08T07:39:53.970Z,100273.72
2022-12-08T07:44:55.507Z,100271.13
2022-12-08T07:49:56.999Z,100272.44
2022-12-08T07:54:58.604Z,100276.16
2022-12-08T08:00:00.093Z,100269.94
2022-12-08T08:05:02.058Z,100281.81
2022-12-08T08:10:04.418Z,100273.53
2022-12-08T08:15:08.408Z,100275.47
2022-12-08T08:20:10.480Z,100286.13
2022-12-08T08:25:12.078Z,100284.28
2022-12-08T08:30:20.062Z,100289.25
2022-12-08T08:35:22.348Z,100297.22
2022-12-08T08:40:23.895Z,100283.44
2022-12-08T08:45:25.546Z,100288.00
2022-12-08T08:50:29.504Z,100290.19
2022-12-08T08:55:34.467Z,100286.31
2022-12-08T09:00:35.967Z,100287.09
2022-12-08T09:05:39.019Z,100266.03
2022-12-08T09:10:40.585Z,100268.81
2022-12-08T09:15:42.132Z,100275.78
2022-12-08T09:20:43.746Z,100286.38
2022-12-08T09:25:45.451Z,100289.09
2022-12-08T09:30:47.143Z,100283.41
2022-12-08T09:35:55.012Z,100288.03
2022-12-08T09:40:56.645Z,100290.91
2022-12-08T09:46:00.206Z,100282.00
2022-12-08T09:51:03.747Z,100285.03
2022-12-08T09:56:16.974Z,100283.59
2022-12-08T10:01:21.146Z,100279.03
2022-12-08T10:06:36.287Z,100269.66
2022-12-08T10:11:54.169Z,100258.91
2022-12-08T10:17:04.548Z,100262.19
2022-12-08T10:22:18.841Z,100258.97
2022-12-08T10:27:20.878Z,100252.78
2022-12-08T10:32:24.303Z,100243.50
2022-12-08T10:37:25.828Z,100238.00
2022-12-08T10:42:35.561Z,100238.16
2022-12-08T10:47:42.514Z,100235.25
2022-12-08T10:52:54.339Z,100231.34
2022-12-08T10:57:56.014Z,100223.38
2022-12-08T11:03:00.228Z,100206.34
2022-12-08T11:08:04.503Z,100205.84
2022-12-08T11:13:18.490Z,100211.53
2022-12-08T11:18:30.826Z,100206.16
2022-12-08T11:23:44.773Z,100196.72
2022-12-08T11:28:46.450Z,100201.25
2022-12-08T11:33:49.341Z,100197.53
2022-12-08T11:38:54.643Z,100198.97
2022-12-08T11:44:10.887Z,100199.50
2022-12-08T11:49:14.352Z,100186.66
2022-12-08T11:54:20.357Z,100186.00
2022-12-08T11:59:29.336Z,100186.00
2022-12-08T12:04:52.449Z,100177.88
2022-12-08T12:10:27.731Z,100165.69
2022-12-08T12:15:46.897Z,100174.22
2022-12-08T12:21:05.648Z,100171.44
2022-12-08T12:26:16.103Z,100171.41
2022-12-08T12:31:21.790Z,100163.97
2022-12-08T12:36:23.775Z,100155.47
2022-12-08T12:41:29.469Z,100153.56
2022-12-08T12:46:46.312Z,100150.34
2022-12-08T12:51:54.692Z,100146.72
2022-12-08T12:57:05.280Z,100148.22
2022-12-08T13:02:28.505Z,100145.50
2022-12-08T13:07:36.593Z,100137.84
2022-12-08T13:12:38.206Z,100140.19
2022-12-08T13:17:45.788Z,100149.91
2022-12-08T13:22:53.085Z,100144.88
2022-12-08T13:27:54.895Z,100140.78
2022-12-08T13:38:26.288Z,100145.69
2022-12-08T13:44:50.796Z,100137.59
2022-12-08T14:00:28.679Z,100125.72
2022-12-08T14:06:10.637Z,100129.63
2022-12-08T14:11:06.105Z,100131.09
2022-12-08T14:16:26.722Z,100137.59
2022-12-08T14:21:32.795Z,100131.47
2022-12-08T14:26:37.851Z,100133.09
2022-12-08T14:31:40.251Z,100128.91
2022-12-08T14:36:41.856Z,100127.25
2022-12-08T14:41:58.895Z,100129.00
2022-12-08T14:47:07.950Z,100137.13
2022-12-08T14:52:11.738Z,100135.38
2022-12-08T14:57:15.076Z,100131.13
2022-12-08T15:02:16.522Z,100137.84
2022-12-08T15:07:22.587Z,100131.00
2022-12-08T15:12:27.688Z,100132.66
2022-12-08T15:17:48.134Z,100131.69
2022-12-08T15:22:49.663Z,100132.53
2022-12-08T15:27:52.315Z,100137.38
2022-12-08T15:32:54.374Z,100145.69
2022-12-08T15:37:56.071Z,100135.78
2022-12-08T15:42:57.691Z,100138.56
2022-12-08T15:47:59.253Z,100142.81
2022-12-08T15:53:00.928Z,100145.72
2022-12-08T15:58:52.300Z,100145.41
2022-12-08T16:04:14.234Z,100139.88
2022-12-08T16:09:00.595Z,100151.41
2022-12-08T16:14:47.419Z,100141.50
2022-12-08T16:19:32.950Z,100134.53
2022-12-08T16:24:34.573Z,100134.03
2022-12-08T16:42:35.058Z,100123.44
2022-12-08T16:47:37.966Z,100132.78
2022-12-08T16:52:39.567Z,100126.41
2022-12-08T16:57:41.857Z,100131.41
2022-12-08T17:02:43.998Z,100131.41
2022-12-08T17:07:47.193Z,100138.53
2022-12-08T17:12:50.403Z,100143.97
2022-12-08T17:17:52.947Z,100140.63
2022-12-08T17:22:56.541Z,100130.00
2022-12-08T17:27:58.227Z,100131.13
2022-12-08T17:32:59.818Z,100130.81
2022-12-08T17:38:01.491Z,100130.31
2022-12-08T17:43:03.109Z,100116.13
2022-12-08T17:48:04.865Z,100115.16
2022-12-08T17:53:06.779Z,100124.72
2022-12-08T17:58:08.790Z,100123.16
2022-12-08T18:03:10.380Z,100117.75
2022-12-08T18:08:12.458Z,100118.56
2022-12-08T18:13:14.129Z,100113.97
2022-12-08T18:18:15.804Z,100117.91
2022-12-08T18:23:17.787Z,100123.88
2022-12-08T18:28:19.492Z,100119.31
2022-12-08T18:33:21.150Z,100122.84
2022-12-08T18:38:22.715Z,100122.13
2022-12-08T18:43:24.363Z,100132.38
2022-12-08T18:48:26.013Z,100125.06
2022-12-08T18:53:27.645Z,100126.88
2022-12-08T18:58:29.217Z,100111.69
2022-12-08T19:03:30.819Z,100114.72
2022-12-08T19:08:32.893Z,100129.75
2022-12-08T19:13:34.589Z,100130.59
2022-12-08T19:18:36.238Z,100123.78
2022-12-08T19:23:41.460Z,100133.72
2022-12-08T19:28:43.546Z,100141.91
2022-12-08T19:33:45.216Z,100141.56
2022-12-08T19:38:47.263Z,100131.31
2022-12-08T19:43:48.786Z,100125.84
2022-12-08T19:48:50.375Z,100129.56
2022-12-08T19:53:52.057Z,100114.97
2022-12-08T19:58:53.666Z,100125.44
2022-12-08T20:03:55.261Z,100126.94
2022-12-08T20:08:56.885Z,100128.78
2022-12-08T20:13:58.456Z,100133.63
2022-12-08T20:19:00.543Z,100125.53
2022-12-08T20:24:02.256Z,100134.53
2022-12-08T20:29:04.176Z,100129.44
2022-12-08T20:53:34.176Z,100126.88
2022-12-08T20:58:40.653Z,100130.78
2022-12-08T21:03:43.564Z,100130.94
2022-12-08T21:08:45.267Z,100134.31
2022-12-08T21:13:47.043Z,100140.19
2022-12-08T21:18:48.662Z,100133.56
2022-12-08T21:23:50.462Z,100139.66
2022-12-08T21:28:53.157Z,100130.25
2022-12-08T21:33:54.766Z,100128.56
2022-12-08T21:38:56.542Z,100130.88
2022-12-08T21:43:58.254Z,100123.38
2022-12-08T21:48:59.926Z,100132.25
2022-12-08T21:54:01.695Z,100134.78
2022-12-08T21:59:03.860Z,100134.69
2022-12-08T22:04:27.654Z,100135.59
2022-12-08T22:09:29.584Z,100140.25
2022-12-08T22:14:31.640Z,100139.03
2022-12-08T22:19:33.694Z,100143.31
2022-12-08T22:24:35.533Z,100142.44
2022-12-08T22:29:37.238Z,100144.59
2022-12-08T22:34:38.776Z,100144.16
2022-12-08T22:39:40.270Z,100138.31
2022-12-08T22:44:41.761Z,100145.78
2022-12-08T22:49:43.447Z,100139.50
2022-12-08T22:54:45.074Z,100138.84
2022-12-08T22:59:46.686Z,100130.13
2022-12-08T23:04:48.721Z,100129.53
2022-12-08T23:09:50.325Z,100127.91
2022-12-08T23:14:51.908Z,100129.00
2022-12-08T23:19:53.435Z,100126.78
2022-12-08T23:24:55.314Z,100139.38
2022-12-08T23:29:57.098Z,100135.44
2022-12-08T23:34:58.988Z,100133.97
2022-12-08T23:40:00.587Z,100128.63
2022-12-08T23:45:02.399Z,100129.22
2022-12-08T23:50:05.226Z,100132.34
2022-12-08T23:55:07.853Z,100126.44
